Tiempo atmosférico en la estación meteorológica de Mutriku, Gipuzkoa (150 m.)



Fecha
DESCASC
Temp. máxima en grados centígrados (hora)
DESCASC
Temp. mínima en grados centígrados (hora)
DESCASC
Temp. media en grados centígrados
DESCASC
Racha de viento máxima en m/sg (hora)
DESCASC
Velocidad máxima media en intervalos de 10 minutos(hora)
DESCASC
Precipitaciones diarias en mm
DESCASC
Precipitaciones de 00:00 a 06:00 en mm
DESCASC
Precipitaciones de 06:00 a 12:00 en mm
DESCASC
Precipitaciones de 12:00 a 18:00 en mm
DESCASC
Precipitaciones de 18:00 a 24:00 en mm
DESCASC
15-08-2019 22.6 (20:00) 17.1 (23:59) 19.9 9.44 (05:50) 5.83 (06:50) 1.4 1.4 0 0 0
14-08-2019 23.3 (16:40) 15.6 (00:00) 19.4 5.56 (19:10) 2.78 (18:10) 0 0 0 0 0
13-08-2019 21.8 (19:20) 15.2 (00:00) 18.5 4.72 (16:30) 3.06 (06:00) 0 0 0 0 0
12-08-2019 19.7 (16:20) 15.3 (00:00) 17.5 13.06 (16:40) 6.94 (15:50) 1.8 0 0 1.6 0.2
11-08-2019 20.2 (16:10) 15.3 (00:00) 17.8 9.17 (07:00) 6.11 (07:10) 51 4.2 23 0.2 23.6
10-08-2019 23.2 (16:10) 17.5 (00:00) 20.4 7.22 (11:10) 3.61 (11:30) 4.8 0 4.4 0 0.4
09-08-2019 30.7 (00:20) 20.4 (00:00) 25.6 12.78 (04:00) 6.94 (04:00) 0 0 0 0 0
08-08-2019 32.4 (14:40) 20.5 (00:00) 26.5 9.72 (12:00) 5.28 (14:10) 0 0 0 0 0
07-08-2019 25.8 (16:10) 18.5 (00:00) 22.1 5.56 (17:30) 3.61 (18:30) 1.6 1.6 0 0 0
06-08-2019 25.1 (16:20) 18.9 (00:00) 22 5 (21:10) 3.33 (21:10) 1.6 0 0 0 1.6
05-08-2019 23.9 (19:20) 18.4 (00:00) 21.1 3.33 (19:30) 2.22 (18:40) 0 0 0 0 0
04-08-2019 21.5 (18:00) 18.8 (00:00) 20.1 4.17 (03:50) 3.06 (03:50) 0 0 0 0 0
03-08-2019 24.4 (19:40) 17.7 (00:00) 21.1 7.78 (21:30) 4.17 (21:30) 0 0 0 0 0
02-08-2019 23.6 (16:20) 17.9 (00:00) 20.8 5.28 (14:10) 3.06 (16:00) 0 0 0 0 0
01-08-2019 22.1 (14:40) 16.4 (00:00) 19.3 14.72 (07:00) 9.17 (07:00) 12.2 6.2 6 0 0
31-07-2019 21.7 (15:20) 15.5 (00:00) 18.6 5.28 (13:20) 3.61 (15:10) 0 0 0 0 0
30-07-2019 20.8 (16:30) 16.6 (00:00) 18.7 12.22 (15:10) 5.83 (15:10) 0 0 0 0 0
29-07-2019 23.1 (11:10) 16.4 (00:00) 19.8 15 (12:40) 7.78 (12:40) 0.6 0 0 0 0.6
28-07-2019 22.5 (18:20) 15.4 (00:00) 18.9 8.89 (03:50) 6.11 (03:50) 4.4 4.4 0 0 0
27-07-2019 18.5 (17:00) 15.1 (00:00) 16.8 11.39 (19:20) 5.83 (21:10) 13.2 2.2 6 1.8 3.2
26-07-2019 20.7 (00:20) 16.2 (00:00) 18.5 10.56 (08:40) 6.11 (09:50) 35.8 10.8 19.8 1 4.2
25-07-2019 26.6 (00:30) 20.5 (00:00) 23.6 9.44 (22:10) 5.56 (22:10) 5.6 0 0 0 5.6
24-07-2019 29.8 (22:00) 21 (00:00) 25.4 9.17 (00:20) 5.83 (00:20) 0 0 0 0 0
23-07-2019 39.3 (15:00) 21.2 (00:00) 30.3 18.33 (20:00) 12.5 (19:50) 1.8 0 0 0 1.8
22-07-2019 26.1 (17:00) 20.3 (00:00) 23.2 7.5 (23:59) 4.44 (23:59) 0 0 0 0 0
21-07-2019 24.7 (15:40) 19 (00:00) 21.9 6.39 (12:40) 3.61 (16:00) 1.4 1.2 0.2 0 0
20-07-2019 24.4 (12:40) 19.4 (00:00) 21.9 5 (05:20) 3.61 (06:00) 0 0 0 0 0
19-07-2019 26.1 (17:10) 16.9 (00:00) 21.5 6.11 (13:20) 4.17 (15:00) 0 0 0 0 0

Gráficas

Temp. máximas Temp. mínimas Temp. medias Precipitaciones Rachas de viento máximas Velocidades máximas media en intervalos de 10 minutos

Datos horarios

Fecha y hora oficial Temperatura (ºC) Velocidad del viento (km/h) Dirección del viento Racha (km/h) Dirección de racha Precipitación (mm) Presión (hPa) Tendencia (hPa) Humedad (%)
2019-08-17 23:00:00 20.8 3 Sur 5 Sur 0 -- -- 70
2019-08-17 22:00:00 21.4 2 Sudoeste 7 Oeste 0 -- -- 60
2019-08-17 21:00:00 22.6 5 Oeste 8 Oeste 0 -- -- 70
2019-08-17 20:00:00 24.7 3 Noroeste 6 Sudeste 0 -- -- 63
2019-08-17 19:00:00 25.6 4 Este 6 Este 0 -- -- 51
2019-08-17 18:00:00 23.8 3 Nordeste 8 Norte 0 -- -- 73
2019-08-17 17:00:00 24 4 Nordeste 8 Nordeste 0 -- -- 74
2019-08-17 16:00:00 24 5 Nordeste 15 Este 0 -- -- 76
2019-08-17 15:00:00 26.7 10 Este 14 Este 0 -- -- 68
2019-08-17 14:00:00 26.6 9 Este 13 Este 0 -- -- 66
2019-08-17 13:00:00 24.9 10 Este 18 Este 0 -- -- 68
2019-08-17 12:00:00 24.8 11 Este 15 Este 0 -- -- 67
2019-08-17 11:00:00 22.9 8 Este 14 Sudeste 0 -- -- 61
2019-08-17 10:00:00 22.1 6 Nordeste 13 Este 0 -- -- 64
2019-08-17 09:00:00 20.2 3 Sudeste 9 Sur 0 -- -- 69
2019-08-17 08:00:00 18.2 3 Sudeste 9 Sur 0 -- -- 71
2019-08-17 07:00:00 17.9 5 Sudeste 9 Sur 0 -- -- 69
2019-08-17 06:00:00 17.9 3 Sudeste 6 Sudeste 0 -- -- 73
2019-08-17 05:00:00 18.2 0 Calma 4 Oeste 0 -- -- 70
2019-08-17 04:00:00 18.6 0 Calma 7 Sudeste 0 -- -- 63
2019-08-17 03:00:00 19.2 4 Sudeste 5 Sudeste 0 -- -- 62
2019-08-17 02:00:00 19.5 3 Este 8 Noroeste 0 -- -- 60
2019-08-17 01:00:00 19.8 4 Oeste 20 Sudoeste 0 -- -- 57
2019-08-17 00:00:00 19.7 9 Sudoeste 15 Sudoeste 0 -- -- 60
2019-08-16 23:00:00 19.3 3 Oeste 6 Oeste 0 -- -- 67
2019-08-16 22:00:00 19.6 3 Nordeste 9 Sur 0 -- -- 72
2019-08-16 21:00:00 20.2 0 Calma 13 Noroeste 0 -- -- 73
2019-08-16 20:00:00 22 9 Noroeste 16 Oeste 0 -- -- 65
2019-08-16 19:00:00 23.3 2 Norte 10 Este 0 -- -- 68
2019-08-16 18:00:00 24.3 7 Este 11 Este 0 -- -- 68
2019-08-16 17:00:00 23 6 Este 12 Este 0 -- -- 67
2019-08-16 16:00:00 23.2 7 Este 11 Nordeste 0 -- -- 67
2019-08-16 15:00:00 22.2 7 Nordeste 12 Este 0 -- -- 72
2019-08-16 14:00:00 22.2 8 Nordeste 17 Este 0 -- -- 70
2019-08-16 13:00:00 21.5 10 Este 15 Este 0 -- -- 72
2019-08-16 12:00:00 21.2 9 Nordeste 17 Nordeste 0 -- -- 71
2019-08-16 11:00:00 21 10 Este 19 Este 0 -- -- 69
2019-08-16 10:00:00 20.2 12 Este 19 Este 0 -- -- 71
2019-08-16 09:00:00 18.6 5 Este 10 Sur 0 -- -- 77
2019-08-16 08:00:00 16 5 Sur 12 Sur 0 -- -- 81
2019-08-16 07:00:00 15.7 7 Sur 10 Sur 0 -- -- 81
2019-08-16 06:00:00 16.4 5 Sur 8 Sudoeste 0 -- -- 78
2019-08-16 05:00:00 16.5 5 Sur 13 Sur 0 -- -- 78
2019-08-16 04:00:00 16.3 8 Sur 13 Sur 0 -- -- 82
2019-08-16 03:00:00 16.6 7 Sur 10 Sur 0 -- -- 80
2019-08-16 02:00:00 16.9 4 Sur 9 Sur 0 -- -- 79
2019-08-16 01:00:00 17.1 5 Sur 9 Sur 0 -- -- 79
2019-08-16 00:00:00 17.1 2 Sur 5 Sur 0 -- -- 80
2019-08-15 23:00:00 17.6 0 Calma 4 Sudeste 0 -- -- 78
2019-08-15 22:00:00 18.3 2 Sudeste 6 Nordeste 0 -- -- 75
2019-08-15 21:00:00 20.4 4 Este 8 Sudeste 0 -- -- 68
2019-08-15 20:00:00 22.6 3 Este 8 Este 0 -- -- 62
2019-08-15 19:00:00 21.7 5 Este 9 Nordeste 0 -- -- 65
2019-08-15 18:00:00 21.3 3 Norte 10 Nordeste 0 -- -- 67
2019-08-15 17:00:00 21.5 5 Norte 12 Nordeste 0 -- -- 64
2019-08-15 16:00:00 22.3 5 Norte 10 Norte 0 -- -- 63
2019-08-15 15:00:00 21.5 3 Norte 14 Norte 0 -- -- 68
2019-08-15 14:00:00 20.7 4 Noroeste 15 Oeste 0 -- -- 73
2019-08-15 13:00:00 20.2 6 Noroeste 15 Noroeste 0 -- -- 76
2019-08-15 12:00:00 20 5 Noroeste 19 Oeste 0 -- -- 80
2019-08-15 11:00:00 19 5 Oeste 18 Oeste 0 -- -- 84
2019-08-15 10:00:00 18.4 9 Oeste 23 Oeste 0 -- -- 85
2019-08-15 09:00:00 17.7 12 Oeste 21 Oeste 0 -- -- 89
2019-08-15 08:00:00 17.4 14 Oeste 25 Oeste 0 -- -- 90
2019-08-15 07:00:00 17.5 19 Oeste 31 Oeste 0 -- -- 92
2019-08-15 06:00:00 18.1 18 Oeste 34 Noroeste 0 -- -- 93
2019-08-15 05:00:00 18.7 13 Oeste 19 Oeste 1.2 -- -- 94
2019-08-15 04:00:00 19.3 8 Sudoeste 14 Oeste 0 -- -- 91
2019-08-15 03:00:00 19.1 9 Oeste 14 Oeste 0 -- -- 93
2019-08-15 02:00:00 19.3 9 Oeste 16 Oeste 0.2 -- -- 91
2019-08-15 01:00:00 19.6 9 Oeste 17 Sudoeste 0 -- -- 88
2019-08-15 00:00:00 19.5 10 Sudoeste 15 Sudoeste 0 -- -- 88
2019-08-14 23:00:00 19.9 6 Oeste 12 Oeste 0 -- -- 86
2019-08-14 22:00:00 20 4 Oeste 13 Oeste 0 -- -- 84
2019-08-14 21:00:00 20.5 2 Norte 14 Noroeste 0 -- -- 82
2019-08-14 20:00:00 20.5 9 Noroeste 20 Noroeste 0 -- -- 80
2019-08-14 19:00:00 21.1 4 Oeste 19 Oeste 0 -- -- 78
2019-08-14 18:00:00 22 7 Noroeste 15 Noroeste 0 -- -- 75
2019-08-14 17:00:00 22.9 4 Noroeste 10 Norte 0 -- -- 66
2019-08-14 16:00:00 22.5 5 Noroeste 12 Noroeste 0 -- -- 63
2019-08-14 15:00:00 22.6 4 Norte 8 Noroeste 0 -- -- 59
2019-08-14 14:00:00 22.6 3 Nordeste 9 Este 0 -- -- 56
2019-08-14 13:00:00 22.4 4 Este 9 Nordeste 0 -- -- 60
2019-08-14 12:00:00 22.4 5 Este 8 Nordeste 0 -- -- 52
2019-08-14 11:00:00 21 3 Nordeste 6 Nordeste 0 -- -- 52
2019-08-14 10:00:00 19.7 2 Sudeste 5 Este 0 -- -- 69
2019-08-14 09:00:00 17.9 0 Calma 9 Sudoeste 0 -- -- 65
2019-08-14 08:00:00 15.7 3 Sur 7 Sudoeste 0 -- -- 67
2019-08-14 07:00:00 15.6 5 Sudoeste 14 Sur 0 -- -- 70
2019-08-14 06:00:00 15.7 6 Sudeste 11 Sudeste 0 -- -- 72
2019-08-14 05:00:00 15.8 4 Sur 10 Sur 0 -- -- 72
2019-08-14 04:00:00 15.9 6 Sur 13 Sudoeste 0 -- -- 72
2019-08-14 03:00:00 15.9 8 Sur 12 Sur 0 -- -- 73
2019-08-14 02:00:00 15.9 6 Sur 12 Sur 0 -- -- 75
2019-08-14 01:00:00 15.9 7 Sur 11 Sur 0 -- -- 77
2019-08-14 00:00:00 16.3 6 Sur 9 Sudeste 0 -- -- 76
2019-08-13 23:00:00 16.8 4 Sur 9 Sudeste 0 -- -- 75
2019-08-13 22:00:00 17.2 6 Sudeste 14 Este 0 -- -- 73
2019-08-13 21:00:00 19.1 6 Este 12 Sudeste 0 -- -- 66
2019-08-13 20:00:00 21.5 4 Este 13 Este 0 -- -- 60
2019-08-13 19:00:00 21.5 7 Este 13 Nordeste 0 -- -- 62
2019-08-13 18:00:00 21.6 6 Nordeste 17 Nordeste 0 -- -- 61
2019-08-13 17:00:00 21.2 9 Nordeste 17 Nordeste 0 -- -- 62
2019-08-13 16:00:00 21.1 5 Norte 13 Norte 0 -- -- 59
2019-08-13 15:00:00 21.1 5 Nordeste 13 Norte 0 -- -- 57
2019-08-13 14:00:00 20.7 6 Nordeste 10 Nordeste 0 -- -- 58
2019-08-13 13:00:00 20.6 5 Norte 13 Norte 0 -- -- 58
2019-08-13 12:00:00 20 5 Noroeste 13 Noroeste 0 -- -- 70
2019-08-13 11:00:00 18.9 7 Noroeste 13 Noroeste 0 -- -- 71
2019-08-13 10:00:00 17.7 6 Oeste 14 Oeste 0 -- -- 77
2019-08-13 09:00:00 15.9 9 Oeste 13 Oeste 0 -- -- 80
2019-08-13 08:00:00 15.6 8 Oeste 14 Oeste 0 -- -- 80
2019-08-13 07:00:00 15.2 8 Oeste 13 Oeste 0 -- -- 80
2019-08-13 06:00:00 15.6 11 Oeste 14 Oeste 0 -- -- 78
2019-08-13 05:00:00 15.7 9 Oeste 14 Oeste 0 -- -- 78
2019-08-13 04:00:00 15.7 8 Oeste 14 Oeste 0 -- -- 77
2019-08-13 03:00:00 15.8 10 Oeste 15 Oeste 0 -- -- 75
2019-08-13 02:00:00 15.9 9 Oeste 13 Oeste 0 -- -- 75
2019-08-13 01:00:00 15.9 8 Oeste 13 Oeste 0 -- -- 76
2019-08-13 00:00:00 16.1 9 Oeste 13 Oeste 0 -- -- 75
2019-08-12 23:00:00 16.4 10 Oeste 14 Oeste 0 -- -- 73
2019-08-12 22:00:00 16.9 8 Oeste 19 Oeste 0 -- -- 72
2019-08-12 21:00:00 17.4 10 Noroeste 25 Noroeste 0 -- -- 71
2019-08-12 20:00:00 18.6 14 Noroeste 30 Noroeste 0 -- -- 71
2019-08-12 19:00:00 19 20 Noroeste 34 Noroeste 0.2 -- -- 68
2019-08-12 18:00:00 17.8 15 Noroeste 35 Noroeste 0 -- -- 75
2019-08-12 17:00:00 18.6 10 Noroeste 47 Oeste 0 -- -- 78
2019-08-12 16:00:00 18.6 21 Noroeste 42 Oeste 0 -- -- 74
2019-08-12 15:00:00 18.8 17 Noroeste 31 Noroeste 0.2 -- -- 74
2019-08-12 14:00:00 17.8 14 Noroeste 36 Oeste 1.4 -- -- 81
2019-08-12 13:00:00 18.8 12 Oeste 27 Oeste 0 -- -- 71
2019-08-12 12:00:00 17.6 18 Oeste 31 Oeste 0 -- -- 76
2019-08-12 11:00:00 18 17 Oeste 33 Oeste 0 -- -- 71
2019-08-12 10:00:00 16.6 17 Oeste 29 Oeste 0 -- -- 78
2019-08-12 09:00:00 16.2 16 Oeste 32 Oeste 0 -- -- 79
2019-08-12 08:00:00 15.4 19 Oeste 32 Oeste 0 -- -- 82
2019-08-12 07:00:00 15.5 16 Oeste 31 Oeste 0 -- -- 80
2019-08-12 06:00:00 15.5 18 Oeste 30 Oeste 0 -- -- 78
2019-08-12 05:00:00 15.4 17 Oeste 27 Oeste 0 -- -- 81
2019-08-12 04:00:00 15.5 19 Oeste 30 Oeste 0 -- -- 81
2019-08-12 03:00:00 15.7 16 Oeste 25 Oeste 0 -- -- 84
2019-08-12 02:00:00 16 15 Oeste 27 Oeste 0 -- -- 87
2019-08-12 01:00:00 16.3 14 Oeste 21 Oeste 0 -- -- 90
2019-08-12 00:00:00 16 13 Oeste 21 Oeste 0 -- -- 92
2019-08-11 23:00:00 16 10 Oeste 17 Oeste 0 -- -- 93
2019-08-11 22:00:00 16.3 7 Oeste 16 Oeste 0 -- -- 95
2019-08-11 21:00:00 16.5 6 Sudeste 17 Este 1.2 -- -- 95
2019-08-11 20:00:00 16.6 14 Este 19 Este 16.8 -- -- 95
2019-08-11 19:00:00 17.3 8 Nordeste 28 Nordeste 5.6 -- -- 91
2019-08-11 18:00:00 19.6 3 Este 8 Nordeste 0 -- -- 83
2019-08-11 17:00:00 19.4 4 Nordeste 12 Nordeste 0 -- -- 83
2019-08-11 16:00:00 20.1 5 Este 10 Este 0 -- -- 86
2019-08-11 15:00:00 19.3 8 Este 12 Este 0 -- -- 92
2019-08-11 14:00:00 18.5 6 Este 9 Nordeste 0 -- -- 94
2019-08-11 13:00:00 17.5 2 Norte 5 Oeste 0.2 -- -- 95
2019-08-11 12:00:00 16.9 0 Calma 6 Oeste 0 -- -- 97
2019-08-11 11:00:00 16.5 3 Oeste 9 Noroeste 0.2 -- -- 97
2019-08-11 10:00:00 16 4 Oeste 6 Oeste 2 -- -- 97
2019-08-11 09:00:00 15.6 2 Sudoeste 12 Oeste 1 -- -- 97
2019-08-11 08:00:00 15.3 8 Oeste 29 Oeste 6 -- -- 96
2019-08-11 07:00:00 15.7 21 Noroeste 33 Noroeste 13.8 -- -- 96
2019-08-11 06:00:00 17.2 10 Oeste 22 Oeste 3.8 -- -- 94
2019-08-11 05:00:00 17.6 10 Oeste 18 Noroeste 0.2 -- -- 93
2019-08-11 04:00:00 17.4 6 Oeste 13 Sudoeste 0 -- -- 93
2019-08-11 03:00:00 17.6 6 Sudoeste 10 Sudoeste 0 -- -- 92
2019-08-11 02:00:00 17.7 3 Sudoeste 12 Sudoeste 0 -- -- 92
2019-08-11 01:00:00 17.4 6 Sudoeste 10 Sudoeste 0.2 -- -- 93
2019-08-11 00:00:00 17.7 6 Sudoeste 13 Sudoeste 0.4 -- -- 91
2019-08-10 23:00:00 18.3 9 Oeste 17 Oeste 0 -- -- 87
2019-08-10 22:00:00 19.3 9 Oeste 14 Oeste 0 -- -- 83
2019-08-10 21:00:00 20.5 0 Calma 6 Sudeste 0 -- -- 75
2019-08-10 20:00:00 21.6 3 Este 10 Este 0 -- -- 72
2019-08-10 19:00:00 22.7 6 Este 13 Este 0 -- -- 66
2019-08-10 18:00:00 22.6 7 Este 13 Este 0 -- -- 70
2019-08-10 17:00:00 22.7 7 Este 18 Este 0 -- -- 69
2019-08-10 16:00:00 23.1 11 Este 20 Sudeste 0 -- -- 74
2019-08-10 15:00:00 23.1 10 Este 19 Este 0 -- -- 73
2019-08-10 14:00:00 22.1 10 Este 16 Este 0 -- -- 78
2019-08-10 13:00:00 20.5 5 Este 10 Oeste 0 -- -- 83
2019-08-10 12:00:00 17.8 8 Oeste 26 Noroeste 2.6 -- -- 89
2019-08-10 11:00:00 20.2 2 Oeste 9 Sur 0 -- -- 88
2019-08-10 10:00:00 18.7 5 Sur 17 Sudeste 1.4 -- -- 91
2019-08-10 09:00:00 18.7 7 Sudoeste 14 Noroeste 0 -- -- 88
2019-08-10 08:00:00 19 7 Noroeste 21 Oeste 0.4 -- -- 88
2019-08-10 07:00:00 19.8 2 Noroeste 12 Noroeste 0 -- -- 82
2019-08-10 06:00:00 19.9 3 Noroeste 13 Noroeste 0 -- -- 83
2019-08-10 05:00:00 20.2 4 Nordeste 16 Norte 0 -- -- 83
2019-08-10 04:00:00 20.7 6 Sudeste 13 Sudeste 0 -- -- 72
2019-08-10 03:00:00 20.6 5 Sudeste 11 Sudeste 0 -- -- 71
2019-08-10 02:00:00 20.6 5 Sudeste 14 Sudeste 0 -- -- 72
2019-08-10 01:00:00 20.2 6 Sudeste 10 Sudeste 0 -- -- 75
2019-08-10 00:00:00 20.4 5 Sudeste 15 Sudeste 0 -- -- 77
2019-08-09 23:00:00 20.6 9 Sudeste 15 Sudeste 0 -- -- 80
2019-08-09 22:00:00 21 8 Sudeste 12 Sudeste 0 -- -- 81
2019-08-09 21:00:00 21.7 3 Este 9 Nordeste 0 -- -- 80
2019-08-09 20:00:00 21.9 5 Nordeste 17 Este 0 -- -- 81
2019-08-09 19:00:00 22.6 9 Este 23 Este 0 -- -- 81
2019-08-09 18:00:00 22.4 9 Este 26 Sudeste 0 -- -- 81
2019-08-09 17:00:00 22.3 12 Este 24 Este 0 -- -- 80
2019-08-09 16:00:00 23.3 14 Este 26 Este 0 -- -- 77
2019-08-09 15:00:00 25.3 10 Este 22 Este 0 -- -- 71
2019-08-09 14:00:00 23 5 Nordeste 13 Nordeste 0 -- -- 80
2019-08-09 13:00:00 22.7 8 Nordeste 15 Nordeste 0 -- -- 79
2019-08-09 12:00:00 22.5 3 Sudeste 12 Noroeste 0 -- -- 87
2019-08-09 11:00:00 22.6 5 Noroeste 28 Oeste 0 -- -- 88
2019-08-09 10:00:00 23.9 7 Noroeste 36 Oeste 0 -- -- 84
2019-08-09 09:00:00 27.6 10 Oeste 27 Oeste 0 -- -- 52
2019-08-09 08:00:00 27.6 12 Oeste 22 Oeste 0 -- -- 47
2019-08-09 07:00:00 27.5 3 Sur 36 Sudoeste 0 -- -- 49
2019-08-09 06:00:00 28.1 15 Oeste 30 Oeste 0 -- -- 48
2019-08-09 05:00:00 28.3 15 Oeste 43 Sudoeste 0 -- -- 48
2019-08-09 04:00:00 29.3 25 Oeste 46 Sudoeste 0 -- -- 46
2019-08-09 03:00:00 29.8 13 Sudoeste 37 Sur 0 -- -- 44
2019-08-09 02:00:00 30.3 13 Oeste 26 Sudoeste 0 -- -- 42
2019-08-09 01:00:00 30.6 10 Sudoeste 24 Oeste 0 -- -- 43
2019-08-09 00:00:00 30.6 15 Sudoeste 22 Oeste 0 -- -- 46
2019-08-08 23:00:00 28.5 6 Sudoeste 11 Sudoeste 0 -- -- 52
2019-08-08 22:00:00 25.5 6 Oeste 11 Sudeste 0 -- -- 66
2019-08-08 21:00:00 26.6 8 Sudeste 17 Este 0 -- -- 63
2019-08-08 20:00:00 28.3 10 Este 19 Sudeste 0 -- -- 60
2019-08-08 19:00:00 29 12 Sudeste 26 Este 0 -- -- 58
2019-08-08 18:00:00 29.7 15 Este 22 Sudeste 0 -- -- 59
2019-08-08 17:00:00 30.9 11 Este 21 Este 0 -- -- 54
2019-08-08 16:00:00 31.4 9 Este 22 Sur 0 -- -- 52
2019-08-08 15:00:00 31.8 14 Sudoeste 32 Oeste 0 -- -- 46
2019-08-08 14:00:00 31.1 16 Sudoeste 33 Sudoeste 0 -- -- 46
2019-08-08 13:00:00 29.9 15 Sudoeste 33 Sudoeste 0 -- -- 49
2019-08-08 12:00:00 28.9 15 Oeste 35 Sudoeste 0 -- -- 55
2019-08-08 11:00:00 27.7 12 Sudoeste 26 Sudoeste 0 -- -- 57
2019-08-08 10:00:00 26.1 12 Oeste 29 Sudoeste 0 -- -- 60
2019-08-08 09:00:00 25.1 4 Sur 18 Oeste 0 -- -- 61
2019-08-08 08:00:00 23.2 7 Sudoeste 19 Sudoeste 0 -- -- 65
2019-08-08 07:00:00 22.7 8 Oeste 24 Sudoeste 0 -- -- 66
2019-08-08 06:00:00 22.9 13 Sudoeste 20 Sudoeste 0 -- -- 66
2019-08-08 05:00:00 22.5 8 Sudoeste 18 Sur 0 -- -- 69
2019-08-08 04:00:00 20.5 0 Calma 8 Oeste 0 -- -- 93
2019-08-08 03:00:00 20.7 0 Calma 6 Este 0 -- -- 93
2019-08-08 02:00:00 21 3 Este 7 Sudeste 0 -- -- 93
2019-08-08 01:00:00 21.4 6 Sudeste 9 Sudeste 0 -- -- 91
2019-08-08 00:00:00 21.8 5 Sudeste 8 Este 0 -- -- 90
2019-08-07 23:00:00 21.8 3 Nordeste 9 Nordeste 0 -- -- 90
2019-08-07 22:00:00 22.3 0 Calma 2 Sudeste 0 -- -- 88
2019-08-07 21:00:00 22.8 0 Calma 12 Este 0 -- -- 85
2019-08-07 20:00:00 24.5 5 Este 12 Sudeste 0 -- -- 78
2019-08-07 19:00:00 24.4 8 Este 19 Sudeste 0 -- -- 78
2019-08-07 18:00:00 25.1 12 Este 20 Sudeste 0 -- -- 74
2019-08-07 17:00:00 25.7 12 Este 18 Este 0 -- -- 72
2019-08-07 16:00:00 25.7 11 Este 18 Nordeste 0 -- -- 71
2019-08-07 15:00:00 24.8 12 Este 17 Nordeste 0 -- -- 74
2019-08-07 14:00:00 24.4 11 Este 15 Este 0 -- -- 73
2019-08-07 13:00:00 23.6 10 Nordeste 14 Este 0 -- -- 75
2019-08-07 12:00:00 23 5 Nordeste 9 Nordeste 0 -- -- 78
2019-08-07 11:00:00 23.4 6 Este 10 Nordeste 0 -- -- 75
2019-08-07 10:00:00 22 3 Norte 8 Nordeste 0 -- -- 78
2019-08-07 09:00:00 20.3 0 Calma 12 Sudoeste 0 -- -- 87
2019-08-07 08:00:00 19.1 5 Sudoeste 9 Sudoeste 0 -- -- 89
2019-08-07 07:00:00 18.8 2 Oeste 8 Oeste 0 -- -- 89
2019-08-07 06:00:00 18.8 3 Oeste 8 Sudoeste 0 -- -- 89
2019-08-07 05:00:00 18.6 7 Sudoeste 12 Sudoeste 0 -- -- 91
2019-08-07 04:00:00 18.6 0 Calma 8 Sur 0 -- -- 91
2019-08-07 03:00:00 18.7 5 Sudoeste 13 Sur 0 -- -- 92
2019-08-07 02:00:00 18.7 6 Sur 19 Sur 0 -- -- 93
2019-08-07 01:00:00 18.8 9 Sur 17 Sur 1.6 -- -- 93
2019-08-07 00:00:00 19.4 8 Sur 13 Sur 1.6 -- -- 92
2019-08-06 23:00:00 20.2 9 Oeste 14 Oeste 0 -- -- 87
2019-08-06 22:00:00 20.2 7 Oeste 18 Noroeste 0 -- -- 86
2019-08-06 21:00:00 20.6 11 Oeste 17 Oeste 0 -- -- 85
2019-08-06 20:00:00 21.6 3 Noroeste 8 Noroeste 0 -- -- 83
2019-08-06 19:00:00 22.4 2 Norte 8 Nordeste 0 -- -- 81
2019-08-06 18:00:00 22.7 3 Nordeste 10 Nordeste 0 -- -- 79
2019-08-06 17:00:00 24 5 Nordeste 14 Este 0 -- -- 75
2019-08-06 16:00:00 24.5 8 Nordeste 14 Este 0 -- -- 75
2019-08-06 15:00:00 23.4 6 Nordeste 15 Este 0 -- -- 77
2019-08-06 14:00:00 24.1 9 Este 13 Este 0 -- -- 76
2019-08-06 13:00:00 22.8 9 Nordeste 14 Este 0 -- -- 77
2019-08-06 12:00:00 21.9 5 Nordeste 8 Nordeste 0 -- -- 82
2019-08-06 11:00:00 21.3 3 Este 11 Sudeste 0 -- -- 88
2019-08-06 10:00:00 20.2 5 Sudeste 10 Este 0 -- -- 95
2019-08-06 09:00:00 19.4 2 Sur 8 Sur 0 -- -- 95
2019-08-06 08:00:00 19.1 5 Sur 7 Sur 0 -- -- 93
2019-08-06 07:00:00 19.3 2 Sur 3 Sur 0 -- -- 91
2019-08-06 06:00:00 19.3 0 Calma 4 Sudeste 0 -- -- 91
2019-08-06 05:00:00 19.2 0 Calma 5 Sudoeste 0 -- -- 90
2019-08-06 04:00:00 19.3 0 Calma 5 Sur 0 -- -- 90
2019-08-06 03:00:00 18.9 0 Calma 4 Sur 0 -- -- 90
2019-08-06 02:00:00 19.3 4 Sur 8 Sur 0 -- -- 88
2019-08-06 01:00:00 19.5 3 Sur 5 Sur 0 -- -- 87
2019-08-06 00:00:00 20.1 0 Calma 4 Sudoeste 0 -- -- 86
2019-08-05 23:00:00 20.3 0 Calma 5 Este 0 -- -- 85
2019-08-05 22:00:00 20.3 3 Este 6 Este 0 -- -- 83
2019-08-05 21:00:00 21.7 4 Este 11 Este 0 -- -- 79
2019-08-05 20:00:00 23.5 5 Este 12 Este 0 -- -- 73
2019-08-05 19:00:00 23.7 7 Este 12 Este 0 -- -- 74
2019-08-05 18:00:00 23.1 6 Nordeste 11 Nordeste 0 -- -- 77
2019-08-05 17:00:00 22.8 5 Nordeste 10 Nordeste 0 -- -- 78
2019-08-05 16:00:00 22.7 6 Nordeste 11 Nordeste 0 -- -- 77
2019-08-05 15:00:00 22.4 4 Norte 10 Este 0 -- -- 81
2019-08-05 14:00:00 21.6 3 Norte 6 Noroeste 0 -- -- 84
2019-08-05 13:00:00 20.8 3 Norte 6 Norte 0 -- -- 84
2019-08-05 12:00:00 21.1 2 Norte 7 Norte 0 -- -- 85
2019-08-05 11:00:00 20.8 4 Nordeste 7 Norte 0 -- -- 85
2019-08-05 10:00:00 20.5 0 Calma 5 Noroeste 0 -- -- 86
2019-08-05 09:00:00 19.9 0 Calma 3 Sudoeste 0 -- -- 90
2019-08-05 08:00:00 18.9 0 Calma 4 Oeste 0 -- -- 92
2019-08-05 07:00:00 18.5 0 Calma 2 Oeste 0 -- -- 92
2019-08-05 06:00:00 18.4 2 Sudoeste 5 Oeste 0 -- -- 91
2019-08-05 05:00:00 18.7 0 Calma 6 Sudoeste 0 -- -- 89
2019-08-05 04:00:00 18.7 5 Oeste 6 Sudoeste 0 -- -- 88
2019-08-05 03:00:00 19.1 4 Sudoeste 7 Sudoeste 0 -- -- 87
2019-08-05 02:00:00 19.2 4 Sudoeste 7 Oeste 0 -- -- 88
2019-08-05 01:00:00 19.4 5 Oeste 8 Oeste 0 -- -- 88
2019-08-05 00:00:00 19.5 5 Sudoeste 10 Sudoeste 0 -- -- 88
2019-08-04 23:00:00 19.7 6 Oeste 12 Sudoeste 0 -- -- 88
2019-08-04 22:00:00 20.1 6 Oeste 11 Oeste 0 -- -- 87
2019-08-04 21:00:00 20.4 5 Noroeste 11 Noroeste 0 -- -- 86
2019-08-04 20:00:00 20.9 2 Noroeste 6 Noroeste 0 -- -- 85
2019-08-04 19:00:00 21.2 2 Norte 6 Nordeste 0 -- -- 85
2019-08-04 18:00:00 21.5 2 Norte 6 Oeste 0 -- -- 85
2019-08-04 17:00:00 21.2 3 Noroeste 9 Norte 0 -- -- 85
2019-08-04 16:00:00 21.1 2 Noroeste 12 Noroeste 0 -- -- 85
2019-08-04 15:00:00 21.2 4 Noroeste 10 Oeste 0 -- -- 85
2019-08-04 14:00:00 21 4 Noroeste 10 Noroeste 0 -- -- 87
2019-08-04 13:00:00 20.7 4 Noroeste 9 Noroeste 0 -- -- 87
2019-08-04 12:00:00 21.1 3 Norte 6 Noroeste 0 -- -- 85
2019-08-04 11:00:00 20.6 3 Oeste 9 Oeste 0 -- -- 84
2019-08-04 10:00:00 20.6 5 Oeste 10 Oeste 0 -- -- 84
2019-08-04 09:00:00 19.8 5 Oeste 9 Oeste 0 -- -- 87
2019-08-04 08:00:00 19.4 4 Sudoeste 8 Sudoeste 0 -- -- 86
2019-08-04 07:00:00 19 5 Sudoeste 10 Sudoeste 0 -- -- 88
2019-08-04 06:00:00 19 4 Sudoeste 10 Sudoeste 0 -- -- 88
2019-08-04 05:00:00 18.9 8 Sudoeste 13 Sudoeste 0 -- -- 89
2019-08-04 04:00:00 18.9 8 Sudoeste 15 Sudoeste 0 -- -- 88
2019-08-04 03:00:00 19 5 Sudoeste 13 Sudoeste 0 -- -- 89
2019-08-04 02:00:00 19.1 7 Oeste 10 Oeste 0 -- -- 89
2019-08-04 01:00:00 19.4 4 Sudoeste 10 Oeste 0 -- -- 89
2019-08-04 00:00:00 19.4 9 Oeste 12 Oeste 0 -- -- 89
2019-08-03 23:00:00 19.9 8 Oeste 20 Oeste 0 -- -- 87
2019-08-03 22:00:00 20.3 12 Oeste 28 Noroeste 0 -- -- 89
2019-08-03 21:00:00 21.7 12 Noroeste 17 Noroeste 0 -- -- 84
2019-08-03 20:00:00 24.2 3 Noroeste 6 Este 0 -- -- 74
2019-08-03 19:00:00 23.4 3 Nordeste 8 Norte 0 -- -- 76
2019-08-03 18:00:00 23.8 4 Norte 10 Norte 0 -- -- 76
2019-08-03 17:00:00 23.3 5 Norte 10 Nordeste 0 -- -- 77
2019-08-03 16:00:00 23.1 6 Nordeste 13 Este 0 -- -- 77
2019-08-03 15:00:00 23.6 9 Este 15 Este 0 -- -- 77
2019-08-03 14:00:00 23.2 12 Nordeste 19 Este 0 -- -- 77
2019-08-03 13:00:00 22.9 10 Este 16 Este 0 -- -- 77
2019-08-03 12:00:00 22.7 8 Nordeste 13 Nordeste 0 -- -- 78
2019-08-03 11:00:00 21.8 8 Nordeste 13 Nordeste 0 -- -- 79
2019-08-03 10:00:00 21 9 Nordeste 14 Este 0 -- -- 80
2019-08-03 09:00:00 20.4 6 Sudeste 12 Sudeste 0 -- -- 86
2019-08-03 08:00:00 18.3 3 Sudeste 7 Sur 0 -- -- 90
2019-08-03 07:00:00 17.7 5 Sudeste 8 Sudeste 0 -- -- 89
2019-08-03 06:00:00 17.8 3 Sur 5 Sudeste 0 -- -- 89
2019-08-03 05:00:00 18.1 0 Calma 3 Sudeste 0 -- -- 89
2019-08-03 04:00:00 18.5 0 Calma 4 Sur 0 -- -- 89
2019-08-03 03:00:00 19.1 4 Sudeste 9 Este 0 -- -- 88
2019-08-03 02:00:00 19.8 4 Este 11 Sudeste 0 -- -- 87
2019-08-03 01:00:00 19.9 2 Norte 9 Norte 0 -- -- 87
2019-08-03 00:00:00 20.1 5 Este 10 Sudeste 0 -- -- 86
2019-08-02 23:00:00 20.1 4 Este 12 Nordeste 0 -- -- 84
2019-08-02 22:00:00 20.4 4 Este 9 Este 0 -- -- 81
2019-08-02 21:00:00 21.4 4 Este 12 Este 0 -- -- 76
2019-08-02 20:00:00 23 5 Este 13 Nordeste 0 -- -- 71
2019-08-02 19:00:00 23.2 7 Nordeste 12 Nordeste 0 -- -- 68
2019-08-02 18:00:00 23.4 8 Este 12 Nordeste 0 -- -- 65
2019-08-02 17:00:00 23.2 7 Nordeste 17 Este 0 -- -- 68
2019-08-02 16:00:00 23.3 11 Este 17 Este 0 -- -- 70
2019-08-02 15:00:00 23.3 8 Nordeste 19 Este 0 -- -- 72
2019-08-02 14:00:00 23 7 Nordeste 12 Nordeste 0 -- -- 76
2019-08-02 13:00:00 21.8 4 Nordeste 8 Norte 0 -- -- 79
2019-08-02 12:00:00 20.8 3 Noroeste 8 Nordeste 0 -- -- 83
2019-08-02 11:00:00 21 3 Norte 8 Norte 0 -- -- 85
2019-08-02 10:00:00 19.5 2 Noroeste 6 Oeste 0 -- -- 89
2019-08-02 09:00:00 18.6 4 Oeste 9 Oeste 0 -- -- 90
2019-08-02 08:00:00 18.2 5 Oeste 7 Oeste 0 -- -- 91
2019-08-02 07:00:00 18.2 4 Oeste 9 Sudoeste 0 -- -- 90
2019-08-02 06:00:00 18.1 4 Oeste 9 Sudoeste 0 -- -- 89
2019-08-02 05:00:00 18.2 6 Oeste 10 Sudoeste 0 -- -- 90
2019-08-02 04:00:00 18 6 Sudoeste 11 Sudoeste 0 -- -- 91
2019-08-02 03:00:00 17.9 6 Oeste 13 Oeste 0 -- -- 93
2019-08-02 02:00:00 18.2 6 Oeste 10 Oeste 0 -- -- 91
2019-08-02 01:00:00 18.2 7 Oeste 13 Oeste 0 -- -- 91
2019-08-02 00:00:00 18.2 8 Oeste 12 Oeste 0 -- -- 91
2019-08-01 23:00:00 18.3 5 Oeste 10 Oeste 0 -- -- 90
2019-08-01 22:00:00 18.4 5 Sudoeste 12 Noroeste 0 -- -- 90
2019-08-01 21:00:00 18.8 6 Oeste 12 Oeste 0 -- -- 88
2019-08-01 20:00:00 19 3 Noroeste 12 Norte 0 -- -- 88
2019-08-01 19:00:00 18.9 5 Noroeste 15 Norte 0 -- -- 88
2019-08-01 18:00:00 19.2 5 Noroeste 12 Este 0 -- -- 88
2019-08-01 17:00:00 19.6 6 Noroeste 24 Oeste 0 -- -- 87
2019-08-01 16:00:00 20 12 Noroeste 25 Oeste 0 -- -- 85
2019-08-01 15:00:00 21.7 11 Noroeste 25 Oeste 0 -- -- 79
2019-08-01 14:00:00 21.9 6 Noroeste 14 Noroeste 0 -- -- 81
2019-08-01 13:00:00 21.4 4 Noroeste 10 Noroeste 0 -- -- 81
2019-08-01 12:00:00 20.6 4 Noroeste 14 Noroeste 0 -- -- 84
2019-08-01 11:00:00 19.9 0 Calma 23 Sudoeste 0 -- -- 87
2019-08-01 10:00:00 17.3 12 Sudoeste 20 Sudoeste 0 -- -- 96
2019-08-01 09:00:00 16.6 4 Sudoeste 9 Sudoeste 0 -- -- 94
2019-08-01 08:00:00 16.4 7 Sudoeste 43 Este 1.2 -- -- 94
2019-08-01 07:00:00 16.5 33 Sudeste 53 Sudeste 4.8 -- -- 93
2019-08-01 06:00:00 17.8 12 Este 46 Oeste 6.2 -- -- 92
2019-08-01 05:00:00 19 4 Sudoeste 9 Oeste 0 -- -- 89
2019-08-01 04:00:00 18.9 4 Nordeste 10 Nordeste 0 -- -- 88
2019-08-01 03:00:00 18.9 3 Este 15 Este 0 -- -- 86
2019-08-01 02:00:00 19.2 5 Este 17 Este 0 -- -- 84
2019-08-01 01:00:00 19.2 6 Este 14 Nordeste 0 -- -- 82
2019-08-01 00:00:00 19.1 4 Este 14 Nordeste 0 -- -- 80
2019-07-31 23:00:00 19.2 4 Este 17 Este 0 -- -- 78
2019-07-31 22:00:00 19.3 5 Este 18 Este 0 -- -- 78
2019-07-31 21:00:00 19.6 5 Este 17 Este 0 -- -- 74
2019-07-31 20:00:00 20.7 7 Nordeste 18 Este 0 -- -- 71
2019-07-31 19:00:00 21.2 7 Nordeste 16 Este 0 -- -- 67
2019-07-31 18:00:00 21.4 7 Nordeste 17 Este 0 -- -- 67
2019-07-31 17:00:00 21.2 6 Nordeste 13 Nordeste 0 -- -- 66
2019-07-31 16:00:00 21.5 10 Nordeste 19 Este 0 -- -- 64
2019-07-31 15:00:00 21.4 10 Nordeste 19 Este 0 -- -- 65
2019-07-31 14:00:00 21.1 12 Nordeste 19 Este 0 -- -- 67
2019-07-31 13:00:00 20.5 11 Nordeste 17 Nordeste 0 -- -- 70
2019-07-31 12:00:00 20.8 9 Nordeste 14 Este 0 -- -- 70
2019-07-31 11:00:00 19.9 8 Nordeste 12 Este 0 -- -- 70
2019-07-31 10:00:00 18.7 4 Este 6 Este 0 -- -- 75
2019-07-31 09:00:00 17.5 0 Calma 4 Sur 0 -- -- 78
2019-07-31 08:00:00 16.1 3 Sudoeste 7 Sur 0 -- -- 80
2019-07-31 07:00:00 15.5 6 Sudoeste 8 Sudoeste 0 -- -- 79
2019-07-31 06:00:00 15.9 4 Oeste 8 Sudoeste 0 -- -- 77
2019-07-31 05:00:00 15.8 6 Sudoeste 13 Sudoeste 0 -- -- 78
2019-07-31 04:00:00 15.6 8 Sudoeste 12 Sudoeste 0 -- -- 79
2019-07-31 03:00:00 15.8 7 Oeste 10 Oeste 0 -- -- 77
2019-07-31 02:00:00 16 8 Oeste 10 Oeste 0 -- -- 75
2019-07-31 01:00:00 16.6 5 Sudoeste 7 Sudoeste 0 -- -- 72
2019-07-31 00:00:00 16.6 4 Sudoeste 7 Oeste 0 -- -- 73
2019-07-30 23:00:00 16.7 4 Oeste 9 Oeste 0 -- -- 74
2019-07-30 22:00:00 17.7 4 Noroeste 15 Norte 0 -- -- 76
2019-07-30 21:00:00 18.2 4 Noroeste 20 Noroeste 0 -- -- 73
2019-07-30 20:00:00 20.1 10 Noroeste 23 Noroeste 0 -- -- 66
2019-07-30 19:00:00 20.4 12 Noroeste 30 Noroeste 0 -- -- 68
2019-07-30 18:00:00 20.6 13 Noroeste 28 Noroeste 0 -- -- 69
2019-07-30 17:00:00 20.6 12 Noroeste 34 Noroeste 0 -- -- 69
2019-07-30 16:00:00 20.3 14 Noroeste 44 Noroeste 0 -- -- 64
2019-07-30 15:00:00 19.3 20 Noroeste 44 Oeste 0 -- -- 70
2019-07-30 14:00:00 20 15 Noroeste 35 Oeste 0 -- -- 67
2019-07-30 13:00:00 19 13 Noroeste 28 Oeste 0 -- -- 72
2019-07-30 12:00:00 19 11 Noroeste 31 Oeste 0 -- -- 70
2019-07-30 11:00:00 19.2 12 Oeste 32 Noroeste 0 -- -- 67
2019-07-30 10:00:00 17.6 14 Oeste 30 Oeste 0 -- -- 71
2019-07-30 09:00:00 17.1 20 Oeste 31 Oeste 0 -- -- 73
2019-07-30 08:00:00 16.9 17 Oeste 29 Oeste 0 -- -- 76
2019-07-30 07:00:00 16.6 17 Oeste 27 Oeste 0 -- -- 78
2019-07-30 06:00:00 16.7 16 Oeste 26 Oeste 0 -- -- 78
2019-07-30 05:00:00 17 13 Sudoeste 27 Oeste 0 -- -- 78
2019-07-30 04:00:00 17.1 15 Oeste 29 Oeste 0 -- -- 79
2019-07-30 03:00:00 16.9 18 Oeste 27 Oeste 0 -- -- 81
2019-07-30 02:00:00 17 16 Oeste 31 Oeste 0 -- -- 83
2019-07-30 01:00:00 17.1 17 Oeste 25 Oeste 0 -- -- 83
2019-07-30 00:00:00 17 16 Oeste 24 Oeste 0 -- -- 85
2019-07-29 23:00:00 16.4 14 Oeste 23 Oeste 0.6 -- -- 91
2019-07-29 22:00:00 18 5 Oeste 19 Sudoeste 0 -- -- 79
2019-07-29 21:00:00 18.5 4 Noroeste 18 Noroeste 0 -- -- 77
2019-07-29 20:00:00 20 3 Noroeste 15 Nordeste 0 -- -- 72
2019-07-29 19:00:00 20.1 6 Noroeste 17 Noroeste 0 -- -- 71
2019-07-29 18:00:00 20.1 5 Noroeste 19 Noroeste 0 -- -- 72
2019-07-29 17:00:00 19.9 12 Noroeste 22 Noroeste 0 -- -- 74
2019-07-29 16:00:00 20.5 5 Noroeste 24 Oeste 0 -- -- 77
2019-07-29 15:00:00 21 13 Noroeste 42 Noroeste 0 -- -- 75
2019-07-29 14:00:00 22.6 20 Noroeste 46 Oeste 0 -- -- 75
2019-07-29 13:00:00 22.4 27 Noroeste 54 Noroeste 0 -- -- 67
2019-07-29 12:00:00 22.4 19 Oeste 27 Noroeste 0 -- -- 76
2019-07-29 11:00:00 23 3 Norte 6 Noroeste 0 -- -- 63
2019-07-29 10:00:00 21 3 Noroeste 14 Noroeste 0 -- -- 71
2019-07-29 09:00:00 21.1 0 Calma 9 Sur 0 -- -- 71
2019-07-29 08:00:00 18.9 0 Calma 6 Sudoeste 0 -- -- 68
2019-07-29 07:00:00 18 2 Este 6 Este 0 -- -- 69
2019-07-29 06:00:00 17.4 0 Calma 4 Sudeste 0 -- -- 74
2019-07-29 05:00:00 17.1 0 Calma 6 Noroeste 0 -- -- 80
2019-07-29 04:00:00 17.4 4 Oeste 10 Oeste 0 -- -- 77
2019-07-29 03:00:00 17.3 5 Oeste 7 Oeste 0 -- -- 80
2019-07-29 02:00:00 17.4 0 Calma 8 Sudeste 0 -- -- 82
2019-07-29 01:00:00 17.5 5 Sudeste 8 Este 0 -- -- 82
2019-07-29 00:00:00 17.6 5 Este 11 Sudeste 0 -- -- 79
2019-07-28 23:00:00 17.9 6 Sudeste 18 Este 0 -- -- 77
2019-07-28 22:00:00 18.4 9 Sudeste 21 Este 0 -- -- 76
2019-07-28 21:00:00 20.1 13 Este 22 Este 0 -- -- 72
2019-07-28 20:00:00 22 9 Este 23 Este 0 -- -- 69
2019-07-28 19:00:00 22.4 11 Este 19 Este 0 -- -- 67
2019-07-28 18:00:00 22.1 9 Este 17 Nordeste 0 -- -- 67
2019-07-28 17:00:00 21.7 10 Este 17 Nordeste 0 -- -- 69
2019-07-28 16:00:00 21.7 9 Este 15 Nordeste 0 -- -- 70
2019-07-28 15:00:00 21.1 7 Nordeste 12 Este 0 -- -- 70
2019-07-28 14:00:00 19.6 3 Noroeste 10 Oeste 0 -- -- 72
2019-07-28 13:00:00 18.7 8 Oeste 15 Sudoeste 0 -- -- 80
2019-07-28 12:00:00 18 8 Oeste 15 Noroeste 0 -- -- 85
2019-07-28 11:00:00 17.5 4 Sudoeste 14 Sur 0 -- -- 85
2019-07-28 10:00:00 17.6 6 Sur 18 Sudoeste 0 -- -- 86
2019-07-28 09:00:00 16.5 10 Oeste 22 Oeste 0 -- -- 88
2019-07-28 08:00:00 15.9 14 Sudoeste 25 Sudoeste 0 -- -- 89
2019-07-28 07:00:00 15.4 14 Oeste 22 Sudoeste 0 -- -- 92
2019-07-28 06:00:00 15.5 15 Sudoeste 27 Sudoeste 0.2 -- -- 92
2019-07-28 05:00:00 15.9 14 Oeste 32 Sudoeste 0.8 -- -- 89
2019-07-28 04:00:00 16.1 19 Oeste 32 Oeste 0 -- -- 89
2019-07-28 03:00:00 15.7 19 Sudoeste 28 Sudoeste 0.4 -- -- 92
2019-07-28 02:00:00 15.5 15 Sudoeste 24 Sudoeste 3 -- -- 93
2019-07-28 01:00:00 15.9 16 Oeste 24 Sudoeste 0 -- -- 89
2019-07-28 00:00:00 15.9 18 Oeste 30 Oeste 1 -- -- 90
2019-07-27 23:00:00 16.2 14 Oeste 28 Oeste 0.2 -- -- 89
2019-07-26 12:00:00 18.1 19 Oeste 29 Noroeste 0.4 -- -- 97
2019-07-26 11:00:00 18 12 Oeste 31 Oeste 1 -- -- 97
2019-07-26 10:00:00 17.8 18 Oeste 36 Oeste 0.4 -- -- 97
2019-07-26 09:00:00 18.6 4 Noroeste 38 Oeste 14.6 -- -- 97
2019-07-26 08:00:00 19.6 3 Noroeste 16 Nordeste 2.4 -- -- 97
2019-07-26 07:00:00 19.3 3 Sudoeste 12 Sudoeste 1 -- -- 96
2019-07-26 06:00:00 19 12 Sudoeste 18 Oeste 1 -- -- 96
2019-07-26 05:00:00 19.1 4 Sudoeste 12 Noroeste 8.8 -- -- 95
2019-07-26 04:00:00 19.7 8 Oeste 17 Oeste 1 -- -- 93
2019-07-26 03:00:00 20.2 6 Sudoeste 10 Sudoeste 0 -- -- 91
2019-07-26 02:00:00 20.3 5 Oeste 13 Oeste 0 -- -- 91
2019-07-26 01:00:00 20.6 8 Oeste 20 Oeste 0 -- -- 93
2019-07-26 00:00:00 20.5 8 Oeste 18 Oeste 0 -- -- 93
2019-07-25 23:00:00 20.6 13 Oeste 34 Oeste 0 -- -- 94
2019-07-25 22:00:00 20.8 18 Oeste 32 Oeste 0.2 -- -- 95
2019-07-25 21:00:00 20.9 11 Noroeste 29 Noroeste 1.4 -- -- 95
2019-07-25 20:00:00 21.2 12 Oeste 23 Noroeste 4 -- -- 94
2019-07-25 19:00:00 21.8 6 Noroeste 23 Oeste 0 -- -- 90
2019-07-25 18:00:00 22.4 7 Noroeste 16 Noroeste 0 -- -- 88
2019-07-25 17:00:00 22.8 5 Noroeste 11 Norte 0 -- -- 86
2019-07-25 16:00:00 23.8 3 Noroeste 9 Noroeste 0 -- -- 83
2019-07-25 15:00:00 24.8 4 Norte 13 Nordeste 0 -- -- 80
2019-07-25 14:00:00 24.5 6 Nordeste 12 Nordeste 0 -- -- 81
2019-07-25 13:00:00 23.9 6 Nordeste 14 Nordeste 0 -- -- 84
2019-07-25 12:00:00 24 9 Este 17 Este 0 -- -- 83
2019-07-25 11:00:00 24.4 9 Este 17 Este 0 -- -- 83
2019-07-25 10:00:00 23.4 7 Este 18 Este 0 -- -- 88
2019-07-25 09:00:00 22.8 12 Este 23 Este 0 -- -- 92
2019-07-25 08:00:00 21.4 11 Este 18 Este 0 -- -- 95
2019-07-25 07:00:00 21.1 0 Calma 7 Nordeste 0 -- -- 94
2019-07-25 06:00:00 21.2 5 Este 8 Sudeste 0 -- -- 92
2019-07-25 05:00:00 21.5 3 Sudeste 9 Sudeste 0 -- -- 89
2019-07-25 04:00:00 21.9 5 Sudeste 9 Este 0 -- -- 86
2019-07-25 03:00:00 22.5 2 Sur 9 Sudeste 0 -- -- 91
2019-07-25 02:00:00 23.6 6 Oeste 30 Oeste 0 -- -- 82
2019-07-25 01:00:00 23.4 19 Noroeste 33 Noroeste 0 -- -- 88
2019-07-25 00:00:00 26 0 Calma 9 Este 0 -- -- 56
2019-07-24 23:00:00 25.6 0 Calma 12 Sur 0 -- -- 73
2019-07-24 22:00:00 29.8 10 Sur 17 Sur 0 -- -- 49
2019-07-24 21:00:00 28.5 13 Sur 27 Sur 0 -- -- 54
2019-07-24 20:00:00 24.6 14 Sudeste 30 Oeste 0 -- -- 82
2019-07-24 19:00:00 25.3 9 Sudoeste 29 Oeste 0 -- -- 78
2019-07-24 18:00:00 26.5 9 Este 16 Este 0 -- -- 75
2019-07-24 17:00:00 27.9 9 Este 18 Sudeste 0 -- -- 70
2019-07-24 16:00:00 27.6 13 Este 20 Este 0 -- -- 70
2019-07-24 15:00:00 27.3 12 Este 19 Sudeste 0 -- -- 72
2019-07-24 14:00:00 26.9 12 Este 20 Este 0 -- -- 74
2019-07-24 13:00:00 25.8 12 Este 18 Este 0 -- -- 75
2019-07-24 12:00:00 25.3 9 Este 16 Este 0 -- -- 78
2019-07-24 11:00:00 24 8 Nordeste 13 Este 0 -- -- 82
2019-07-24 10:00:00 23.7 6 Nordeste 11 Nordeste 0 -- -- 84
2019-07-24 09:00:00 22.8 2 Norte 9 Oeste 0 -- -- 88
2019-07-24 08:00:00 21.1 4 Oeste 13 Sur 0 -- -- 91
2019-07-24 07:00:00 21 11 Sur 18 Sur 0 -- -- 92
2019-07-24 06:00:00 21.3 3 Nordeste 16 Este 0 -- -- 93
2019-07-24 05:00:00 21.3 13 Este 28 Este 0 -- -- 92
2019-07-24 04:00:00 21.2 10 Este 16 Este 0 -- -- 91
2019-07-24 03:00:00 21.2 0 Calma 13 Este 0 -- -- 89
2019-07-24 02:00:00 21.8 7 Sudeste 15 Sudeste 0 -- -- 87
2019-07-24 01:00:00 22 6 Oeste 33 Oeste 0 -- -- 82
2019-07-24 00:00:00 21.7 18 Sudoeste 37 Oeste 0 -- -- 86
2019-07-23 23:00:00 22.2 8 Sudoeste 26 Oeste 0 -- -- 83
2019-07-23 22:00:00 22.9 15 Oeste 52 Noroeste 0 -- -- 78
2019-07-23 21:00:00 23.5 11 Oeste 49 Oeste 0 -- -- 68
2019-07-23 20:00:00 23.5 41 Oeste 66 Oeste 1.8 -- -- 67
2019-07-23 19:00:00 26.2 15 Oeste 46 Oeste 0 -- -- 60
2019-07-23 18:00:00 27.2 18 Noroeste 26 Oeste 0 -- -- 63
2019-07-23 17:00:00 30.2 13 Noroeste 23 Oeste 0 -- -- 53
2019-07-23 16:00:00 37.4 12 Este 23 Sur 0 -- -- 29
2019-07-23 15:00:00 39.3 7 Este 33 Este 0 -- -- 25
2019-07-23 14:00:00 37.4 8 Este 26 Sudeste 0 -- -- 28
2019-07-23 13:00:00 34.2 14 Sudoeste 28 Este 0 -- -- 29
2019-07-23 12:00:00 33.7 11 Oeste 49 Sudoeste 0 -- -- 30
2019-07-23 11:00:00 33.2 27 Sudoeste 55 Sudoeste 0 -- -- 29
2019-07-23 10:00:00 31.7 11 Oeste 27 Noroeste 0 -- -- 32
2019-07-23 09:00:00 28.9 6 Sur 18 Sur 0 -- -- 38
2019-07-23 08:00:00 23.1 6 Sudoeste 20 Este 0 -- -- 70
2019-07-23 07:00:00 21.9 3 Este 15 Sudeste 0 -- -- 79
2019-07-23 06:00:00 21.6 8 Sur 15 Este 0 -- -- 85
2019-07-23 05:00:00 21.2 4 Sur 12 Este 0 -- -- 91
2019-07-23 04:00:00 21.2 0 Calma 8 Sudeste 0 -- -- 92
2019-07-23 03:00:00 21.6 4 Sudeste 9 Este 0 -- -- 91
2019-07-23 02:00:00 22.2 6 Este 24 Sudoeste 0 -- -- 87
2019-07-23 01:00:00 22.6 12 Sudoeste 25 Sudoeste 0 -- -- 86
2019-07-23 00:00:00 22.1 16 Oeste 27 Noroeste 0 -- -- 86
2019-07-22 23:00:00 23.1 3 Oeste 9 Sudoeste 0 -- -- 79
2019-07-22 22:00:00 23.3 6 Oeste 8 Oeste 0 -- -- 76
2019-07-22 21:00:00 24.6 5 Oeste 6 Oeste 0 -- -- 78
2019-07-22 20:00:00 25.5 3 Este 11 Este 0 -- -- 75
2019-07-22 19:00:00 26.1 8 Este 12 Nordeste 0 -- -- 72
2019-07-22 18:00:00 25.9 10 Este 13 Nordeste 0 -- -- 73
2019-07-22 17:00:00 26.1 8 Este 16 Este 0 -- -- 72
2019-07-22 16:00:00 25.7 12 Este 17 Este 0 -- -- 73
2019-07-22 15:00:00 25.7 9 Este 19 Este 0 -- -- 72
2019-07-22 14:00:00 25.7 9 Nordeste 14 Este 0 -- -- 71
2019-07-22 13:00:00 25.1 10 Este 13 Este 0 -- -- 74
2019-07-22 12:00:00 24.8 9 Este 12 Este 0 -- -- 74
2019-07-22 11:00:00 24 7 Nordeste 13 Este 0 -- -- 76
2019-07-22 10:00:00 22.9 5 Nordeste 10 Nordeste 0 -- -- 79
2019-07-22 09:00:00 21.5 3 Oeste 5 Oeste 0 -- -- 83
2019-07-22 08:00:00 20.5 3 Oeste 5 Sur 0 -- -- 86
2019-07-22 07:00:00 20.3 3 Sur 5 Sur 0 -- -- 85
2019-07-22 06:00:00 20.4 0 Calma 2 Sur 0 -- -- 85
2019-07-22 05:00:00 20.7 0 Calma 4 Oeste 0 -- -- 83
2019-07-22 04:00:00 20.6 2 Oeste 4 Oeste 0 -- -- 82
2019-07-22 03:00:00 20.8 2 Oeste 4 Sur 0 -- -- 82
2019-07-22 02:00:00 20.8 3 Sur 8 Sudoeste 0 -- -- 82
2019-07-22 01:00:00 21 2 Sur 6 Este 0 -- -- 82
2019-07-22 00:00:00 21.1 3 Nordeste 9 Nordeste 0 -- -- 81
2019-07-21 23:00:00 21.2 4 Este 9 Nordeste 0 -- -- 81
2019-07-21 22:00:00 21.4 0 Calma 9 Nordeste 0 -- -- 81
2019-07-21 21:00:00 21.5 2 Oeste 13 Norte 0 -- -- 81
2019-07-21 20:00:00 21.8 6 Noroeste 14 Norte 0 -- -- 79
2019-07-21 19:00:00 23.1 3 Norte 9 Noroeste 0 -- -- 75
2019-07-21 18:00:00 24.2 7 Este 14 Nordeste 0 -- -- 72
2019-07-21 17:00:00 24.5 7 Nordeste 18 Este 0 -- -- 73
2019-07-21 16:00:00 24.7 13 Este 19 Este 0 -- -- 71
2019-07-21 15:00:00 23.4 10 Este 18 Este 0 -- -- 74
2019-07-21 14:00:00 22 9 Este 18 Este 0 -- -- 82
2019-07-21 13:00:00 21.3 9 Este 23 Este 0 -- -- 86
2019-07-21 12:00:00 22.2 5 Nordeste 13 Nordeste 0 -- -- 83
2019-07-21 11:00:00 22.7 6 Nordeste 12 Nordeste 0 -- -- 82
2019-07-21 10:00:00 22.4 8 Nordeste 13 Nordeste 0 -- -- 82
2019-07-21 09:00:00 20.4 3 Este 5 Nordeste 0 -- -- 94
2019-07-21 08:00:00 19.5 4 Sudeste 8 Este 0.2 -- -- 95
2019-07-21 07:00:00 19.2 2 Sur 10 Sudoeste 0 -- -- 95
2019-07-21 06:00:00 19 7 Sudoeste 10 Sudoeste 0 -- -- 95
2019-07-21 05:00:00 19.3 3 Oeste 9 Sudoeste 0.2 -- -- 94
2019-07-21 04:00:00 19.6 5 Sudoeste 8 Sur 1 -- -- 93
2019-07-21 03:00:00 20.3 3 Sudoeste 8 Oeste 0 -- -- 88
2019-07-21 02:00:00 20.3 0 Calma 4 Sudoeste 0 -- -- 88
2019-07-21 01:00:00 20 3 Oeste 10 Oeste 0 -- -- 89
2019-07-21 00:00:00 20.3 6 Noroeste 11 Noroeste 0 -- -- 87
2019-07-20 23:00:00 20.7 2 Noroeste 14 Norte 0 -- -- 85
2019-07-20 22:00:00 21.2 3 Noroeste 9 Noroeste 0 -- -- 86
2019-07-20 21:00:00 21.4 2 Oeste 9 Norte 0 -- -- 84
2019-07-20 20:00:00 21.8 3 Noroeste 8 Norte 0 -- -- 80
2019-07-20 19:00:00 22.8 2 Norte 10 Nordeste 0 -- -- 76
2019-07-20 18:00:00 23 5 Nordeste 9 Nordeste 0 -- -- 74
2019-07-20 17:00:00 22.9 4 Nordeste 10 Noroeste 0 -- -- 76
2019-07-20 16:00:00 22.7 4 Norte 13 Norte 0 -- -- 78
2019-07-20 15:00:00 23.4 5 Norte 15 Nordeste 0 -- -- 77
2019-07-20 14:00:00 24 5 Norte 12 Nordeste 0 -- -- 74
2019-07-20 13:00:00 24 4 Norte 10 Norte 0 -- -- 73
2019-07-20 12:00:00 22.9 4 Norte 10 Noroeste 0 -- -- 74
2019-07-20 11:00:00 22.9 4 Noroeste 15 Oeste 0 -- -- 74
2019-07-20 10:00:00 22.4 6 Oeste 12 Oeste 0 -- -- 75
2019-07-20 09:00:00 20.9 9 Oeste 14 Oeste 0 -- -- 79
2019-07-20 08:00:00 19.6 10 Oeste 14 Oeste 0 -- -- 86
2019-07-20 07:00:00 19.6 7 Oeste 15 Sudoeste 0 -- -- 84
2019-07-20 06:00:00 19.5 13 Sudoeste 18 Sudoeste 0 -- -- 86
2019-07-20 05:00:00 19.5 8 Oeste 14 Oeste 0 -- -- 89
2019-07-20 04:00:00 19.9 5 Oeste 9 Sudoeste 0 -- -- 88
2019-07-20 03:00:00 20.3 7 Sudoeste 9 Sudoeste 0 -- -- 86
2019-07-20 02:00:00 20.6 6 Oeste 13 Oeste 0 -- -- 85
2019-07-20 01:00:00 20.7 7 Oeste 14 Oeste 0 -- -- 87
2019-07-20 00:00:00 20.8 9 Oeste 16 Oeste 0 -- -- 88
2019-07-19 23:00:00 20.8 11 Noroeste 17 Noroeste 0 -- -- 88
2019-07-19 22:00:00 21.1 7 Oeste 14 Noroeste 0 -- -- 87
2019-07-19 21:00:00 22.6 6 Noroeste 13 Oeste 0 -- -- 81
2019-07-19 20:00:00 24.7 3 Noroeste 9 Este 0 -- -- 72
2019-07-19 19:00:00 25.4 6 Este 13 Este 0 -- -- 69
2019-07-19 18:00:00 25.2 9 Este 22 Nordeste 0 -- -- 68
2019-07-19 17:00:00 25.9 10 Este 22 Este 0 -- -- 65
2019-07-19 16:00:00 24.9 12 Este 22 Este 0 -- -- 66
2019-07-19 15:00:00 24.6 15 Este 21 Nordeste 0 -- -- 64
2019-07-19 14:00:00 24.7 11 Este 22 Nordeste 0 -- -- 64
2019-07-19 13:00:00 24.6 13 Este 21 Nordeste 0 -- -- 62
2019-07-19 12:00:00 24.1 10 Este 22 Nordeste 0 -- -- 63
2019-07-19 11:00:00 23.5 9 Este 21 Este 0 -- -- 64
2019-07-19 10:00:00 22.3 13 Este 22 Sudeste 0 -- -- 65
2019-07-19 09:00:00 20.6 14 Este 19 Sudeste 0 -- -- 72
2019-07-19 08:00:00 17.8 5 Sudeste 12 Sur 0 -- -- 81
2019-07-19 07:00:00 16.9 8 Sur 10 Sur 0 -- -- 84
2019-07-19 06:00:00 17 4 Sur 8 Sur 0 -- -- 84
2019-07-19 05:00:00 16.9 4 Sur 5 Sur 0 -- -- 84
2019-07-19 04:00:00 17.3 0 Calma 3 Sudoeste 0 -- -- 83
2019-07-19 03:00:00 17.4 3 Sudoeste 7 Sudoeste 0 -- -- 83
2019-07-19 02:00:00 17.5 5 Sur 6 Sur 0 -- -- 83
2019-07-19 01:00:00 17.8 4 Sudoeste 5 Sur 0 -- -- 82
2019-07-19 00:00:00 18.1 2 Sur 3 Sur 0 -- -- 81